sensor_id;sensor_type;location;lat;lon;timestamp;P1;durP1;ratioP1;P2;durP2;ratioP2
41739;SDS011;27422;52.444;13.300;2023-08-12T00:00:05;5.80;;;2.78;;
41739;SDS011;27422;52.444;13.300;2023-08-12T00:02:39;5.47;;;2.45;;
41739;SDS011;27422;52.444;13.300;2023-08-12T00:05:06;4.63;;;2.58;;
41739;SDS011;27422;52.444;13.300;2023-08-12T00:07:32;4.75;;;2.60;;
41739;SDS011;27422;52.444;13.300;2023-08-12T00:10:01;5.03;;;2.85;;
41739;SDS011;27422;52.444;13.300;2023-08-12T00:12:35;5.40;;;3.22;;
41739;SDS011;27422;52.444;13.300;2023-08-12T00:15:01;4.43;;;2.47;;
41739;SDS011;27422;52.444;13.300;2023-08-12T00:17:28;5.90;;;2.65;;
41739;SDS011;27422;52.444;13.300;2023-08-12T00:19:53;5.88;;;2.88;;
41739;SDS011;27422;52.444;13.300;2023-08-12T00:22:19;4.30;;;2.95;;
41739;SDS011;27422;52.444;13.300;2023-08-12T00:24:44;5.55;;;3.00;;
41739;SDS011;27422;52.444;13.300;2023-08-12T00:27:10;4.00;;;2.40;;
41739;SDS011;27422;52.444;13.300;2023-08-12T00:29:35;6.25;;;2.92;;
41739;SDS011;27422;52.444;13.300;2023-08-12T00:32:01;4.95;;;2.97;;
41739;SDS011;27422;52.444;13.300;2023-08-12T00:34:27;4.70;;;2.75;;
41739;SDS011;27422;52.444;13.300;2023-08-12T00:36:52;6.40;;;2.75;;
41739;SDS011;27422;52.444;13.300;2023-08-12T00:39:18;4.60;;;3.03;;
41739;SDS011;27422;52.444;13.300;2023-08-12T00:41:43;5.97;;;3.13;;
41739;SDS011;27422;52.444;13.300;2023-08-12T00:44:08;6.55;;;3.30;;
41739;SDS011;27422;52.444;13.300;2023-08-12T00:46:34;4.88;;;3.08;;
41739;SDS011;27422;52.444;13.300;2023-08-12T00:49:00;5.97;;;2.97;;
41739;SDS011;27422;52.444;13.300;2023-08-12T00:51:25;4.82;;;3.20;;
41739;SDS011;27422;52.444;13.300;2023-08-12T00:53:51;5.65;;;2.90;;
41739;SDS011;27422;52.444;13.300;2023-08-12T00:56:17;6.22;;;3.00;;
41739;SDS011;27422;52.444;13.300;2023-08-12T00:58:43;6.55;;;3.00;;
41739;SDS011;27422;52.444;13.300;2023-08-12T01:01:09;5.60;;;3.05;;
41739;SDS011;27422;52.444;13.300;2023-08-12T01:03:35;4.57;;;2.78;;
41739;SDS011;27422;52.444;13.300;2023-08-12T01:06:00;4.68;;;3.00;;
41739;SDS011;27422;52.444;13.300;2023-08-12T01:08:28;5.20;;;3.17;;
41739;SDS011;27422;52.444;13.300;2023-08-12T01:10:58;6.78;;;3.35;;
41739;SDS011;27422;52.444;13.300;2023-08-12T01:13:49;4.65;;;3.00;;
41739;SDS011;27422;52.444;13.300;2023-08-12T01:16:26;4.47;;;2.90;;
41739;SDS011;27422;52.444;13.300;2023-08-12T01:18:54;5.68;;;3.30;;
41739;SDS011;27422;52.444;13.300;2023-08-12T01:21:20;5.50;;;3.05;;
41739;SDS011;27422;52.444;13.300;2023-08-12T01:23:47;6.47;;;3.07;;
41739;SDS011;27422;52.444;13.300;2023-08-12T01:26:12;5.18;;;3.15;;
41739;SDS011;27422;52.444;13.300;2023-08-12T01:28:37;6.47;;;3.03;;
41739;SDS011;27422;52.444;13.300;2023-08-12T01:31:09;4.53;;;2.85;;
41739;SDS011;27422;52.444;13.300;2023-08-12T01:33:39;5.63;;;2.90;;
41739;SDS011;27422;52.444;13.300;2023-08-12T01:36:09;4.57;;;3.03;;
41739;SDS011;27422;52.444;13.300;2023-08-12T01:38:38;5.03;;;2.95;;
41739;SDS011;27422;52.444;13.300;2023-08-12T01:41:04;5.97;;;3.28;;
41739;SDS011;27422;52.444;13.300;2023-08-12T01:43:29;5.78;;;2.97;;
41739;SDS011;27422;52.444;13.300;2023-08-12T01:45:56;5.38;;;3.38;;
41739;SDS011;27422;52.444;13.300;2023-08-12T01:48:21;4.85;;;3.03;;
41739;SDS011;27422;52.444;13.300;2023-08-12T01:50:49;9.88;;;3.10;;
41739;SDS011;27422;52.444;13.300;2023-08-12T01:53:15;6.20;;;3.40;;
41739;SDS011;27422;52.444;13.300;2023-08-12T01:55:43;5.80;;;3.33;;
41739;SDS011;27422;52.444;13.300;2023-08-12T01:58:09;5.18;;;3.22;;
41739;SDS011;27422;52.444;13.300;2023-08-12T02:00:35;6.95;;;3.33;;
41739;SDS011;27422;52.444;13.300;2023-08-12T02:03:00;5.65;;;3.00;;
41739;SDS011;27422;52.444;13.300;2023-08-12T02:05:25;5.47;;;3.13;;
41739;SDS011;27422;52.444;13.300;2023-08-12T02:07:51;8.55;;;3.20;;
41739;SDS011;27422;52.444;13.300;2023-08-12T02:10:16;8.45;;;3.15;;
41739;SDS011;27422;52.444;13.300;2023-08-12T02:12:42;4.22;;;2.90;;
41739;SDS011;27422;52.444;13.300;2023-08-12T02:15:07;5.13;;;3.08;;
41739;SDS011;27422;52.444;13.300;2023-08-12T02:17:33;3.95;;;3.00;;
41739;SDS011;27422;52.444;13.300;2023-08-12T02:19:58;5.85;;;3.40;;
41739;SDS011;27422;52.444;13.300;2023-08-12T02:22:24;6.55;;;2.83;;
41739;SDS011;27422;52.444;13.300;2023-08-12T02:24:49;5.70;;;3.00;;
41739;SDS011;27422;52.444;13.300;2023-08-12T02:27:15;4.85;;;2.97;;
41739;SDS011;27422;52.444;13.300;2023-08-12T02:29:40;6.15;;;3.53;;
41739;SDS011;27422;52.444;13.300;2023-08-12T02:32:06;7.18;;;3.30;;
41739;SDS011;27422;52.444;13.300;2023-08-12T02:34:34;5.70;;;3.13;;
41739;SDS011;27422;52.444;13.300;2023-08-12T02:36:59;6.72;;;3.35;;
41739;SDS011;27422;52.444;13.300;2023-08-12T02:39:25;5.03;;;3.03;;
41739;SDS011;27422;52.444;13.300;2023-08-12T02:41:53;6.78;;;3.17;;
41739;SDS011;27422;52.444;13.300;2023-08-12T02:44:19;7.80;;;3.10;;
41739;SDS011;27422;52.444;13.300;2023-08-12T02:46:44;5.18;;;3.35;;
41739;SDS011;27422;52.444;13.300;2023-08-12T02:49:09;5.43;;;3.03;;
41739;SDS011;27422;52.444;13.300;2023-08-12T02:51:36;7.30;;;2.92;;
41739;SDS011;27422;52.444;13.300;2023-08-12T02:54:02;5.70;;;3.20;;
41739;SDS011;27422;52.444;13.300;2023-08-12T02:56:27;5.03;;;3.10;;
41739;SDS011;27422;52.444;13.300;2023-08-12T02:58:53;4.95;;;3.08;;
41739;SDS011;27422;52.444;13.300;2023-08-12T03:01:18;5.00;;;2.90;;
41739;SDS011;27422;52.444;13.300;2023-08-12T03:03:44;5.28;;;2.80;;
41739;SDS011;27422;52.444;13.300;2023-08-12T03:06:09;6.75;;;3.92;;
41739;SDS011;27422;52.444;13.300;2023-08-12T03:08:35;5.20;;;3.38;;
41739;SDS011;27422;52.444;13.300;2023-08-12T03:11:00;6.00;;;3.13;;
41739;SDS011;27422;52.444;13.300;2023-08-12T03:13:26;5.93;;;3.22;;
41739;SDS011;27422;52.444;13.300;2023-08-12T03:15:52;5.18;;;3.10;;
41739;SDS011;27422;52.444;13.300;2023-08-12T03:18:17;4.93;;;3.33;;
41739;SDS011;27422;52.444;13.300;2023-08-12T03:20:43;5.03;;;3.20;;
41739;SDS011;27422;52.444;13.300;2023-08-12T03:23:09;5.80;;;3.40;;
41739;SDS011;27422;52.444;13.300;2023-08-12T03:25:34;5.22;;;3.40;;
41739;SDS011;27422;52.444;13.300;2023-08-12T03:27:59;6.45;;;3.30;;
41739;SDS011;27422;52.444;13.300;2023-08-12T03:30:25;4.57;;;3.33;;
41739;SDS011;27422;52.444;13.300;2023-08-12T03:32:51;5.72;;;3.10;;
41739;SDS011;27422;52.444;13.300;2023-08-12T03:35:16;4.90;;;2.92;;
41739;SDS011;27422;52.444;13.300;2023-08-12T03:37:42;4.75;;;3.30;;
41739;SDS011;27422;52.444;13.300;2023-08-12T03:40:10;5.50;;;3.20;;
41739;SDS011;27422;52.444;13.300;2023-08-12T03:42:45;6.38;;;2.80;;
41739;SDS011;27422;52.444;13.300;2023-08-12T03:45:31;6.15;;;3.17;;
41739;SDS011;27422;52.444;13.300;2023-08-12T03:47:56;5.53;;;3.40;;
41739;SDS011;27422;52.444;13.300;2023-08-12T03:50:24;4.53;;;2.90;;
41739;SDS011;27422;52.444;13.300;2023-08-12T03:52:49;5.25;;;3.22;;
41739;SDS011;27422;52.444;13.300;2023-08-12T03:55:15;4.93;;;3.08;;
41739;SDS011;27422;52.444;13.300;2023-08-12T03:57:40;5.50;;;3.00;;
41739;SDS011;27422;52.444;13.300;2023-08-12T04:00:06;7.57;;;3.65;;
41739;SDS011;27422;52.444;13.300;2023-08-12T04:02:33;5.28;;;3.33;;
41739;SDS011;27422;52.444;13.300;2023-08-12T04:04:59;7.93;;;3.40;;
41739;SDS011;27422;52.444;13.300;2023-08-12T04:07:25;5.03;;;3.08;;
41739;SDS011;27422;52.444;13.300;2023-08-12T04:09:51;6.67;;;3.30;;
41739;SDS011;27422;52.444;13.300;2023-08-12T04:12:17;4.03;;;3.10;;
41739;SDS011;27422;52.444;13.300;2023-08-12T04:14:42;9.27;;;3.63;;
41739;SDS011;27422;52.444;13.300;2023-08-12T04:17:08;5.90;;;3.15;;
41739;SDS011;27422;52.444;13.300;2023-08-12T04:19:33;8.30;;;3.20;;
41739;SDS011;27422;52.444;13.300;2023-08-12T04:21:58;5.93;;;3.08;;
41739;SDS011;27422;52.444;13.300;2023-08-12T04:24:24;6.80;;;3.30;;
41739;SDS011;27422;52.444;13.300;2023-08-12T04:26:49;6.47;;;3.20;;
41739;SDS011;27422;52.444;13.300;2023-08-12T04:29:15;5.50;;;3.28;;
41739;SDS011;27422;52.444;13.300;2023-08-12T04:31:40;6.32;;;3.60;;
41739;SDS011;27422;52.444;13.300;2023-08-12T04:34:06;5.55;;;3.30;;
41739;SDS011;27422;52.444;13.300;2023-08-12T04:36:31;7.28;;;3.53;;
41739;SDS011;27422;52.444;13.300;2023-08-12T04:38:57;8.18;;;3.95;;
41739;SDS011;27422;52.444;13.300;2023-08-12T04:41:22;6.70;;;3.50;;
41739;SDS011;27422;52.444;13.300;2023-08-12T04:43:49;5.43;;;3.28;;
41739;SDS011;27422;52.444;13.300;2023-08-12T04:46:14;8.18;;;3.72;;
41739;SDS011;27422;52.444;13.300;2023-08-12T04:48:39;5.30;;;3.15;;
41739;SDS011;27422;52.444;13.300;2023-08-12T04:51:05;6.03;;;2.95;;
41739;SDS011;27422;52.444;13.300;2023-08-12T04:53:31;7.47;;;3.30;;
41739;SDS011;27422;52.444;13.300;2023-08-12T04:55:57;4.82;;;3.22;;
41739;SDS011;27422;52.444;13.300;2023-08-12T04:58:22;5.72;;;3.50;;
41739;SDS011;27422;52.444;13.300;2023-08-12T05:00:48;5.93;;;3.03;;
41739;SDS011;27422;52.444;13.300;2023-08-12T05:03:13;6.25;;;3.00;;
41739;SDS011;27422;52.444;13.300;2023-08-12T05:05:39;5.40;;;2.75;;
41739;SDS011;27422;52.444;13.300;2023-08-12T05:08:04;5.22;;;3.00;;
41739;SDS011;27422;52.444;13.300;2023-08-12T05:10:35;8.70;;;2.90;;
41739;SDS011;27422;52.444;13.300;2023-08-12T05:13:01;7.65;;;3.00;;
41739;SDS011;27422;52.444;13.300;2023-08-12T05:15:27;4.80;;;2.65;;
41739;SDS011;27422;52.444;13.300;2023-08-12T05:17:52;5.18;;;3.10;;
41739;SDS011;27422;52.444;13.300;2023-08-12T05:20:18;4.95;;;3.15;;
41739;SDS011;27422;52.444;13.300;2023-08-12T05:22:43;4.40;;;2.45;;
41739;SDS011;27422;52.444;13.300;2023-08-12T05:25:09;5.32;;;2.42;;
41739;SDS011;27422;52.444;13.300;2023-08-12T05:27:34;4.28;;;2.60;;
41739;SDS011;27422;52.444;13.300;2023-08-12T05:30:02;4.55;;;2.60;;
41739;SDS011;27422;52.444;13.300;2023-08-12T05:32:33;5.78;;;2.60;;
41739;SDS011;27422;52.444;13.300;2023-08-12T05:34:58;6.03;;;2.65;;
41739;SDS011;27422;52.444;13.300;2023-08-12T05:37:24;6.65;;;2.55;;
41739;SDS011;27422;52.444;13.300;2023-08-12T05:39:49;6.50;;;2.30;;
41739;SDS011;27422;52.444;13.300;2023-08-12T05:42:15;5.63;;;2.55;;
41739;SDS011;27422;52.444;13.300;2023-08-12T05:44:40;4.95;;;2.72;;
41739;SDS011;27422;52.444;13.300;2023-08-12T05:47:07;6.07;;;2.40;;
41739;SDS011;27422;52.444;13.300;2023-08-12T05:49:32;4.88;;;2.47;;
41739;SDS011;27422;52.444;13.300;2023-08-12T05:51:58;4.35;;;2.50;;
41739;SDS011;27422;52.444;13.300;2023-08-12T05:54:23;4.78;;;2.33;;
41739;SDS011;27422;52.444;13.300;2023-08-12T05:56:49;4.68;;;2.58;;
41739;SDS011;27422;52.444;13.300;2023-08-12T05:59:14;4.10;;;2.40;;
41739;SDS011;27422;52.444;13.300;2023-08-12T06:01:40;6.00;;;2.50;;
41739;SDS011;27422;52.444;13.300;2023-08-12T06:04:05;4.68;;;2.42;;
41739;SDS011;27422;52.444;13.300;2023-08-12T06:06:33;4.45;;;2.38;;
41739;SDS011;27422;52.444;13.300;2023-08-12T06:08:58;4.90;;;2.65;;
41739;SDS011;27422;52.444;13.300;2023-08-12T06:11:24;4.97;;;2.70;;
41739;SDS011;27422;52.444;13.300;2023-08-12T06:13:49;4.50;;;2.47;;
41739;SDS011;27422;52.444;13.300;2023-08-12T06:16:23;5.82;;;2.75;;
41739;SDS011;27422;52.444;13.300;2023-08-12T06:18:48;5.03;;;2.60;;
41739;SDS011;27422;52.444;13.300;2023-08-12T06:21:14;5.20;;;2.55;;
41739;SDS011;27422;52.444;13.300;2023-08-12T06:23:39;6.03;;;2.47;;
41739;SDS011;27422;52.444;13.300;2023-08-12T06:26:05;4.57;;;2.70;;
41739;SDS011;27422;52.444;13.300;2023-08-12T06:28:30;4.55;;;2.70;;
41739;SDS011;27422;52.444;13.300;2023-08-12T06:31:01;5.28;;;2.47;;
41739;SDS011;27422;52.444;13.300;2023-08-12T06:33:29;6.45;;;2.60;;
41739;SDS011;27422;52.444;13.300;2023-08-12T06:35:54;4.82;;;2.65;;
41739;SDS011;27422;52.444;13.300;2023-08-12T06:38:20;5.78;;;2.40;;
41739;SDS011;27422;52.444;13.300;2023-08-12T06:40:48;6.35;;;2.83;;
41739;SDS011;27422;52.444;13.300;2023-08-12T06:43:14;4.93;;;2.55;;
41739;SDS011;27422;52.444;13.300;2023-08-12T06:45:39;4.97;;;2.63;;
41739;SDS011;27422;52.444;13.300;2023-08-12T06:48:04;5.00;;;2.47;;
41739;SDS011;27422;52.444;13.300;2023-08-12T06:50:30;5.13;;;2.72;;
41739;SDS011;27422;52.444;13.300;2023-08-12T06:52:58;5.70;;;2.80;;
41739;SDS011;27422;52.444;13.300;2023-08-12T06:55:23;8.18;;;3.17;;
41739;SDS011;27422;52.444;13.300;2023-08-12T06:57:49;6.00;;;2.53;;
41739;SDS011;27422;52.444;13.300;2023-08-12T07:00:14;5.05;;;2.90;;
41739;SDS011;27422;52.444;13.300;2023-08-12T07:02:40;5.13;;;2.80;;
41739;SDS011;27422;52.444;13.300;2023-08-12T07:05:07;4.80;;;2.72;;
41739;SDS011;27422;52.444;13.300;2023-08-12T07:07:39;6.05;;;2.80;;
41739;SDS011;27422;52.444;13.300;2023-08-12T07:10:04;5.93;;;2.95;;
41739;SDS011;27422;52.444;13.300;2023-08-12T07:12:31;5.88;;;2.95;;
41739;SDS011;27422;52.444;13.300;2023-08-12T07:15:03;6.20;;;2.50;;
41739;SDS011;27422;52.444;13.300;2023-08-12T07:17:32;5.55;;;2.63;;
41739;SDS011;27422;52.444;13.300;2023-08-12T07:19:57;4.60;;;2.53;;
41739;SDS011;27422;52.444;13.300;2023-08-12T07:22:22;5.45;;;2.50;;
41739;SDS011;27422;52.444;13.300;2023-08-12T07:24:50;9.93;;;4.13;;
41739;SDS011;27422;52.444;13.300;2023-08-12T07:27:20;5.70;;;2.50;;
41739;SDS011;27422;52.444;13.300;2023-08-12T07:29:46;5.82;;;2.78;;
41739;SDS011;27422;52.444;13.300;2023-08-12T07:32:12;4.53;;;2.40;;
41739;SDS011;27422;52.444;13.300;2023-08-12T07:34:37;5.80;;;2.50;;
41739;SDS011;27422;52.444;13.300;2023-08-12T07:37:11;4.28;;;2.35;;
41739;SDS011;27422;52.444;13.300;2023-08-12T07:39:45;5.30;;;2.80;;
41739;SDS011;27422;52.444;13.300;2023-08-12T07:42:11;6.25;;;2.40;;
41739;SDS011;27422;52.444;13.300;2023-08-12T07:47:37;4.85;;;2.38;;
41739;SDS011;27422;52.444;13.300;2023-08-12T07:50:03;7.35;;;2.75;;
41739;SDS011;27422;52.444;13.300;2023-08-12T07:52:50;7.35;;;2.70;;
41739;SDS011;27422;52.444;13.300;2023-08-12T07:55:18;7.10;;;3.10;;
41739;SDS011;27422;52.444;13.300;2023-08-12T07:57:46;4.78;;;2.70;;
41739;SDS011;27422;52.444;13.300;2023-08-12T08:00:17;7.63;;;2.50;;
41739;SDS011;27422;52.444;13.300;2023-08-12T08:02:51;4.22;;;2.58;;
41739;SDS011;27422;52.444;13.300;2023-08-12T08:05:43;4.35;;;2.50;;
41739;SDS011;27422;52.444;13.300;2023-08-12T08:08:15;3.88;;;2.40;;
41739;SDS011;27422;52.444;13.300;2023-08-12T08:10:58;4.13;;;2.40;;
41739;SDS011;27422;52.444;13.300;2023-08-12T08:13:26;6.53;;;2.58;;
41739;SDS011;27422;52.444;13.300;2023-08-12T08:15:57;6.18;;;2.80;;
41739;SDS011;27422;52.444;13.300;2023-08-12T08:18:24;4.90;;;2.80;;
41739;SDS011;27422;52.444;13.300;2023-08-12T08:20:55;7.00;;;3.03;;
41739;SDS011;27422;52.444;13.300;2023-08-12T08:23:20;4.97;;;3.10;;
41739;SDS011;27422;52.444;13.300;2023-08-12T08:25:46;7.18;;;3.25;;
41739;SDS011;27422;52.444;13.300;2023-08-12T08:28:12;4.88;;;2.80;;
41739;SDS011;27422;52.444;13.300;2023-08-12T08:30:37;6.18;;;2.80;;
41739;SDS011;27422;52.444;13.300;2023-08-12T08:33:03;4.25;;;2.85;;
41739;SDS011;27422;52.444;13.300;2023-08-12T08:35:31;6.28;;;2.85;;
41739;SDS011;27422;52.444;13.300;2023-08-12T08:37:57;5.15;;;3.00;;
41739;SDS011;27422;52.444;13.300;2023-08-12T08:40:22;5.07;;;2.90;;
41739;SDS011;27422;52.444;13.300;2023-08-12T08:42:51;6.82;;;3.13;;
41739;SDS011;27422;52.444;13.300;2023-08-12T08:45:20;5.07;;;3.15;;
41739;SDS011;27422;52.444;13.300;2023-08-12T08:47:46;5.85;;;2.78;;
41739;SDS011;27422;52.444;13.300;2023-08-12T08:50:13;4.95;;;2.97;;
41739;SDS011;27422;52.444;13.300;2023-08-12T08:52:39;5.30;;;2.97;;
41739;SDS011;27422;52.444;13.300;2023-08-12T08:55:05;5.32;;;3.10;;
41739;SDS011;27422;52.444;13.300;2023-08-12T08:57:30;4.38;;;2.83;;
41739;SDS011;27422;52.444;13.300;2023-08-12T08:59:57;4.60;;;2.60;;
41739;SDS011;27422;52.444;13.300;2023-08-12T09:02:22;4.88;;;3.10;;
41739;SDS011;27422;52.444;13.300;2023-08-12T09:04:48;6.53;;;3.03;;
41739;SDS011;27422;52.444;13.300;2023-08-12T09:07:14;6.72;;;3.17;;
41739;SDS011;27422;52.444;13.300;2023-08-12T09:09:40;5.85;;;3.10;;
41739;SDS011;27422;52.444;13.300;2023-08-12T09:12:08;5.68;;;3.20;;
41739;SDS011;27422;52.444;13.300;2023-08-12T09:14:35;5.37;;;2.80;;
41739;SDS011;27422;52.444;13.300;2023-08-12T09:17:00;5.40;;;2.85;;
41739;SDS011;27422;52.444;13.300;2023-08-12T09:19:25;7.13;;;2.85;;
41739;SDS011;27422;52.444;13.300;2023-08-12T09:21:51;5.88;;;3.05;;
41739;SDS011;27422;52.444;13.300;2023-08-12T09:26:57;5.15;;;3.00;;
41739;SDS011;27422;52.444;13.300;2023-08-12T09:29:32;5.38;;;2.85;;
41739;SDS011;27422;52.444;13.300;2023-08-12T09:32:08;4.25;;;2.60;;
41739;SDS011;27422;52.444;13.300;2023-08-12T09:34:35;6.57;;;3.20;;
41739;SDS011;27422;52.444;13.300;2023-08-12T09:37:02;5.53;;;3.25;;
41739;SDS011;27422;52.444;13.300;2023-08-12T09:39:28;4.68;;;2.95;;
41739;SDS011;27422;52.444;13.300;2023-08-12T09:41:54;5.70;;;3.00;;
41739;SDS011;27422;52.444;13.300;2023-08-12T09:44:20;6.20;;;3.40;;
41739;SDS011;27422;52.444;13.300;2023-08-12T09:46:47;4.80;;;3.00;;
41739;SDS011;27422;52.444;13.300;2023-08-12T09:49:13;4.63;;;3.05;;
41739;SDS011;27422;52.444;13.300;2023-08-12T09:51:39;5.10;;;3.05;;
41739;SDS011;27422;52.444;13.300;2023-08-12T09:54:08;5.57;;;2.70;;
41739;SDS011;27422;52.444;13.300;2023-08-12T09:56:36;5.47;;;2.88;;
41739;SDS011;27422;52.444;13.300;2023-08-12T09:59:05;6.30;;;2.90;;
41739;SDS011;27422;52.444;13.300;2023-08-12T10:01:31;5.75;;;3.05;;
41739;SDS011;27422;52.444;13.300;2023-08-12T10:04:18;6.40;;;2.90;;
41739;SDS011;27422;52.444;13.300;2023-08-12T10:06:47;5.90;;;3.10;;
41739;SDS011;27422;52.444;13.300;2023-08-12T10:09:15;4.32;;;2.85;;
41739;SDS011;27422;52.444;13.300;2023-08-12T10:11:44;5.32;;;3.00;;
41739;SDS011;27422;52.444;13.300;2023-08-12T10:14:12;7.00;;;3.00;;
41739;SDS011;27422;52.444;13.300;2023-08-12T10:16:42;4.13;;;3.10;;
41739;SDS011;27422;52.444;13.300;2023-08-12T10:19:11;5.00;;;2.80;;
41739;SDS011;27422;52.444;13.300;2023-08-12T10:21:37;5.20;;;3.38;;
41739;SDS011;27422;52.444;13.300;2023-08-12T10:24:02;5.97;;;3.03;;
41739;SDS011;27422;52.444;13.300;2023-08-12T10:26:28;6.10;;;3.17;;
41739;SDS011;27422;52.444;13.300;2023-08-12T10:28:54;6.13;;;2.90;;
41739;SDS011;27422;52.444;13.300;2023-08-12T10:31:19;7.68;;;3.30;;
41739;SDS011;27422;52.444;13.300;2023-08-12T10:33:48;6.50;;;3.22;;
41739;SDS011;27422;52.444;13.300;2023-08-12T10:36:14;5.43;;;3.17;;
41739;SDS011;27422;52.444;13.300;2023-08-12T10:38:40;7.35;;;3.47;;
41739;SDS011;27422;52.444;13.300;2023-08-12T10:41:21;4.38;;;2.85;;
41739;SDS011;27422;52.444;13.300;2023-08-12T10:46:21;6.40;;;2.88;;
41739;SDS011;27422;52.444;13.300;2023-08-12T10:49:10;6.00;;;3.30;;
41739;SDS011;27422;52.444;13.300;2023-08-12T11:04:42;6.75;;;3.47;;
41739;SDS011;27422;52.444;13.300;2023-08-12T11:07:15;7.75;;;3.10;;
41739;SDS011;27422;52.444;13.300;2023-08-12T11:09:41;4.40;;;2.60;;
41739;SDS011;27422;52.444;13.300;2023-08-12T11:12:08;3.72;;;2.50;;
41739;SDS011;27422;52.444;13.300;2023-08-12T11:14:46;8.02;;;2.60;;
41739;SDS011;27422;52.444;13.300;2023-08-12T11:17:13;5.70;;;2.65;;
41739;SDS011;27422;52.444;13.300;2023-08-12T11:19:40;4.00;;;2.90;;
41739;SDS011;27422;52.444;13.300;2023-08-12T11:22:07;4.75;;;2.97;;
41739;SDS011;27422;52.444;13.300;2023-08-12T11:24:33;4.30;;;2.78;;
41739;SDS011;27422;52.444;13.300;2023-08-12T11:27:02;4.63;;;2.80;;
41739;SDS011;27422;52.444;13.300;2023-08-12T11:29:27;5.07;;;2.72;;
41739;SDS011;27422;52.444;13.300;2023-08-12T11:31:54;5.32;;;2.47;;
41739;SDS011;27422;52.444;13.300;2023-08-12T11:34:21;3.97;;;2.40;;
41739;SDS011;27422;52.444;13.300;2023-08-12T11:36:49;5.13;;;2.78;;
41739;SDS011;27422;52.444;13.300;2023-08-12T11:39:14;5.00;;;2.70;;
41739;SDS011;27422;52.444;13.300;2023-08-12T11:41:40;7.25;;;2.80;;
41739;SDS011;27422;52.444;13.300;2023-08-12T11:44:06;4.68;;;2.70;;
41739;SDS011;27422;52.444;13.300;2023-08-12T11:46:37;3.97;;;2.47;;
41739;SDS011;27422;52.444;13.300;2023-08-12T11:49:02;4.00;;;2.78;;
41739;SDS011;27422;52.444;13.300;2023-08-12T11:51:28;3.63;;;2.53;;
41739;SDS011;27422;52.444;13.300;2023-08-12T11:53:53;7.68;;;2.72;;
41739;SDS011;27422;52.444;13.300;2023-08-12T11:56:18;4.43;;;2.90;;
41739;SDS011;27422;52.444;13.300;2023-08-12T11:58:48;4.43;;;2.90;;
41739;SDS011;27422;52.444;13.300;2023-08-12T12:01:16;4.63;;;3.03;;
41739;SDS011;27422;52.444;13.300;2023-08-12T12:03:42;4.80;;;2.90;;
41739;SDS011;27422;52.444;13.300;2023-08-12T12:06:08;5.82;;;2.95;;
41739;SDS011;27422;52.444;13.300;2023-08-12T12:08:33;4.97;;;3.00;;
41739;SDS011;27422;52.444;13.300;2023-08-12T12:11:05;4.78;;;2.90;;
41739;SDS011;27422;52.444;13.300;2023-08-12T12:13:31;4.70;;;2.60;;
41739;SDS011;27422;52.444;13.300;2023-08-12T12:15:57;4.30;;;3.03;;
41739;SDS011;27422;52.444;13.300;2023-08-12T12:18:24;4.93;;;2.67;;
41739;SDS011;27422;52.444;13.300;2023-08-12T12:20:56;5.72;;;2.97;;
41739;SDS011;27422;52.444;13.300;2023-08-12T12:23:26;4.72;;;3.10;;
41739;SDS011;27422;52.444;13.300;2023-08-12T12:25:59;4.55;;;2.88;;
41739;SDS011;27422;52.444;13.300;2023-08-12T12:28:28;5.70;;;3.20;;
41739;SDS011;27422;52.444;13.300;2023-08-12T12:30:54;6.38;;;3.10;;
41739;SDS011;27422;52.444;13.300;2023-08-12T12:33:19;5.70;;;3.13;;
41739;SDS011;27422;52.444;13.300;2023-08-12T12:35:45;5.13;;;3.10;;
41739;SDS011;27422;52.444;13.300;2023-08-12T12:38:16;7.35;;;2.97;;
41739;SDS011;27422;52.444;13.300;2023-08-12T12:40:42;5.40;;;3.13;;
41739;SDS011;27422;52.444;13.300;2023-08-12T12:43:07;4.47;;;2.67;;
41739;SDS011;27422;52.444;13.300;2023-08-12T12:45:32;4.88;;;2.75;;
41739;SDS011;27422;52.444;13.300;2023-08-12T12:48:04;6.45;;;2.80;;
41739;SDS011;27422;52.444;13.300;2023-08-12T12:50:29;5.95;;;2.95;;
41739;SDS011;27422;52.444;13.300;2023-08-12T12:52:55;4.25;;;2.70;;
41739;SDS011;27422;52.444;13.300;2023-08-12T12:55:20;5.13;;;2.35;;
41739;SDS011;27422;52.444;13.300;2023-08-12T12:57:45;3.97;;;2.35;;
41739;SDS011;27422;52.444;13.300;2023-08-12T13:00:11;3.92;;;2.40;;
41739;SDS011;27422;52.444;13.300;2023-08-12T13:02:37;6.15;;;2.70;;
41739;SDS011;27422;52.444;13.300;2023-08-12T13:05:02;3.65;;;2.25;;
41739;SDS011;27422;52.444;13.300;2023-08-12T13:07:28;4.18;;;2.72;;
41739;SDS011;27422;52.444;13.300;2023-08-12T13:09:56;4.28;;;2.50;;
41739;SDS011;27422;52.444;13.300;2023-08-12T13:12:25;4.07;;;2.60;;
41739;SDS011;27422;52.444;13.300;2023-08-12T13:14:51;3.78;;;2.60;;
41739;SDS011;27422;52.444;13.300;2023-08-12T13:17:16;4.57;;;2.50;;
41739;SDS011;27422;52.444;13.300;2023-08-12T13:19:41;4.43;;;2.58;;
41739;SDS011;27422;52.444;13.300;2023-08-12T13:22:07;5.40;;;2.53;;
41739;SDS011;27422;52.444;13.300;2023-08-12T13:24:32;3.92;;;2.45;;
41739;SDS011;27422;52.444;13.300;2023-08-12T13:26:57;5.60;;;2.60;;
41739;SDS011;27422;52.444;13.300;2023-08-12T13:29:23;4.00;;;2.40;;
41739;SDS011;27422;52.444;13.300;2023-08-12T13:31:48;4.63;;;2.72;;
41739;SDS011;27422;52.444;13.300;2023-08-12T13:34:14;3.75;;;2.38;;
41739;SDS011;27422;52.444;13.300;2023-08-12T13:36:39;4.18;;;2.50;;
41739;SDS011;27422;52.444;13.300;2023-08-12T13:39:05;4.75;;;2.40;;
41739;SDS011;27422;52.444;13.300;2023-08-12T13:41:30;3.70;;;2.60;;
41739;SDS011;27422;52.444;13.300;2023-08-12T13:43:56;4.05;;;2.50;;
41739;SDS011;27422;52.444;13.300;2023-08-12T13:46:21;4.35;;;2.28;;
41739;SDS011;27422;52.444;13.300;2023-08-12T13:48:46;4.93;;;2.33;;
41739;SDS011;27422;52.444;13.300;2023-08-12T13:51:15;4.32;;;2.15;;
41739;SDS011;27422;52.444;13.300;2023-08-12T13:53:40;4.20;;;2.33;;
41739;SDS011;27422;52.444;13.300;2023-08-12T13:56:06;3.92;;;2.38;;
41739;SDS011;27422;52.444;13.300;2023-08-12T13:58:31;3.50;;;2.30;;
41739;SDS011;27422;52.444;13.300;2023-08-12T14:00:56;4.20;;;2.05;;
41739;SDS011;27422;52.444;13.300;2023-08-12T14:03:22;3.80;;;2.10;;
41739;SDS011;27422;52.444;13.300;2023-08-12T14:05:48;3.38;;;2.00;;
41739;SDS011;27422;52.444;13.300;2023-08-12T14:08:13;3.60;;;1.88;;
41739;SDS011;27422;52.444;13.300;2023-08-12T14:10:39;3.67;;;1.90;;
41739;SDS011;27422;52.444;13.300;2023-08-12T14:13:05;4.25;;;1.80;;
41739;SDS011;27422;52.444;13.300;2023-08-12T14:15:31;3.33;;;1.80;;
41739;SDS011;27422;52.444;13.300;2023-08-12T14:17:57;3.72;;;1.80;;
41739;SDS011;27422;52.444;13.300;2023-08-12T14:20:22;4.18;;;2.05;;
41739;SDS011;27422;52.444;13.300;2023-08-12T14:22:48;4.07;;;1.90;;
41739;SDS011;27422;52.444;13.300;2023-08-12T14:25:13;4.80;;;1.95;;
41739;SDS011;27422;52.444;13.300;2023-08-12T14:27:39;3.30;;;2.00;;
41739;SDS011;27422;52.444;13.300;2023-08-12T14:30:04;3.22;;;1.70;;
41739;SDS011;27422;52.444;13.300;2023-08-12T14:32:30;3.10;;;1.73;;
41739;SDS011;27422;52.444;13.300;2023-08-12T14:34:56;2.88;;;1.60;;
41739;SDS011;27422;52.444;13.300;2023-08-12T14:37:21;3.20;;;1.67;;
41739;SDS011;27422;52.444;13.300;2023-08-12T14:39:46;4.18;;;1.88;;
41739;SDS011;27422;52.444;13.300;2023-08-12T14:42:12;5.00;;;1.70;;
41739;SDS011;27422;52.444;13.300;2023-08-12T14:44:37;2.78;;;1.45;;
41739;SDS011;27422;52.444;13.300;2023-08-12T14:47:03;5.35;;;1.83;;
41739;SDS011;27422;52.444;13.300;2023-08-12T14:49:29;3.42;;;1.70;;
41739;SDS011;27422;52.444;13.300;2023-08-12T14:51:54;4.03;;;1.80;;